sensor_id;sensor_type;location;lat;lon;timestamp;P1;durP1;ratioP1;P2;durP2;ratioP2
75375;SDS011;63958;52.004;5.908;2022-12-18T00:00:23;35.88;;;16.17;;
75375;SDS011;63958;52.004;5.908;2022-12-18T00:02:52;35.50;;;15.30;;
75375;SDS011;63958;52.004;5.908;2022-12-18T00:05:21;37.03;;;18.10;;
75375;SDS011;63958;52.004;5.908;2022-12-18T00:07:50;43.30;;;20.03;;
75375;SDS011;63958;52.004;5.908;2022-12-18T00:10:19;44.87;;;22.03;;
75375;SDS011;63958;52.004;5.908;2022-12-18T00:12:48;45.53;;;21.93;;
75375;SDS011;63958;52.004;5.908;2022-12-18T00:15:17;44.93;;;22.00;;
75375;SDS011;63958;52.004;5.908;2022-12-18T00:17:48;46.87;;;22.77;;
75375;SDS011;63958;52.004;5.908;2022-12-18T00:20:17;46.40;;;23.73;;
75375;SDS011;63958;52.004;5.908;2022-12-18T00:22:51;46.87;;;21.33;;
75375;SDS011;63958;52.004;5.908;2022-12-18T00:25:20;40.17;;;20.40;;
75375;SDS011;63958;52.004;5.908;2022-12-18T00:27:49;52.53;;;22.87;;
75375;SDS011;63958;52.004;5.908;2022-12-18T00:30:18;44.00;;;21.60;;
75375;SDS011;63958;52.004;5.908;2022-12-18T00:32:49;47.70;;;23.03;;
75375;SDS011;63958;52.004;5.908;2022-12-18T00:35:18;42.50;;;20.33;;
75375;SDS011;63958;52.004;5.908;2022-12-18T00:37:47;36.20;;;17.30;;
75375;SDS011;63958;52.004;5.908;2022-12-18T00:40:16;33.50;;;15.17;;
75375;SDS011;63958;52.004;5.908;2022-12-18T00:42:45;42.30;;;20.53;;
75375;SDS011;63958;52.004;5.908;2022-12-18T00:45:24;37.70;;;17.80;;
75375;SDS011;63958;52.004;5.908;2022-12-18T00:47:56;35.33;;;16.50;;
75375;SDS011;63958;52.004;5.908;2022-12-18T00:50:26;42.80;;;21.85;;
75375;SDS011;63958;52.004;5.908;2022-12-18T00:52:55;36.00;;;18.87;;
75375;SDS011;63958;52.004;5.908;2022-12-18T00:55:24;28.77;;;14.67;;
75375;SDS011;63958;52.004;5.908;2022-12-18T00:57:53;21.40;;;11.03;;
75375;SDS011;63958;52.004;5.908;2022-12-18T01:00:22;31.23;;;15.53;;
75375;SDS011;63958;52.004;5.908;2022-12-18T01:02:51;35.80;;;17.47;;
75375;SDS011;63958;52.004;5.908;2022-12-18T01:05:22;40.90;;;18.93;;
75375;SDS011;63958;52.004;5.908;2022-12-18T01:07:52;40.47;;;20.85;;
75375;SDS011;63958;52.004;5.908;2022-12-18T01:10:21;32.83;;;16.27;;
75375;SDS011;63958;52.004;5.908;2022-12-18T01:12:50;27.07;;;13.20;;
75375;SDS011;63958;52.004;5.908;2022-12-18T01:15:20;25.50;;;11.63;;
75375;SDS011;63958;52.004;5.908;2022-12-18T01:17:49;29.07;;;14.80;;
75375;SDS011;63958;52.004;5.908;2022-12-18T01:20:22;28.37;;;13.73;;
75375;SDS011;63958;52.004;5.908;2022-12-18T01:22:51;23.63;;;12.93;;
75375;SDS011;63958;52.004;5.908;2022-12-18T01:25:20;28.13;;;14.70;;
75375;SDS011;63958;52.004;5.908;2022-12-18T01:27:50;35.03;;;17.20;;
75375;SDS011;63958;52.004;5.908;2022-12-18T01:30:19;38.97;;;20.73;;
75375;SDS011;63958;52.004;5.908;2022-12-18T01:32:48;39.27;;;18.80;;
75375;SDS011;63958;52.004;5.908;2022-12-18T01:35:17;31.20;;;15.40;;
75375;SDS011;63958;52.004;5.908;2022-12-18T01:37:48;29.40;;;15.03;;
75375;SDS011;63958;52.004;5.908;2022-12-18T01:40:17;27.87;;;13.07;;
75375;SDS011;63958;52.004;5.908;2022-12-18T01:42:49;22.10;;;13.10;;
75375;SDS011;63958;52.004;5.908;2022-12-18T01:47:53;25.73;;;13.67;;
75375;SDS011;63958;52.004;5.908;2022-12-18T01:50:25;30.67;;;14.90;;
75375;SDS011;63958;52.004;5.908;2022-12-18T01:53:04;29.20;;;14.97;;
75375;SDS011;63958;52.004;5.908;2022-12-18T01:55:36;34.83;;;17.60;;
75375;SDS011;63958;52.004;5.908;2022-12-18T01:58:09;28.63;;;13.43;;
75375;SDS011;63958;52.004;5.908;2022-12-18T02:00:38;27.67;;;13.87;;
75375;SDS011;63958;52.004;5.908;2022-12-18T02:03:07;23.57;;;12.93;;
75375;SDS011;63958;52.004;5.908;2022-12-18T02:05:38;25.27;;;13.10;;
75375;SDS011;63958;52.004;5.908;2022-12-18T02:08:15;26.87;;;14.20;;
75375;SDS011;63958;52.004;5.908;2022-12-18T02:10:51;28.53;;;14.53;;
75375;SDS011;63958;52.004;5.908;2022-12-18T02:13:26;22.83;;;11.37;;
75375;SDS011;63958;52.004;5.908;2022-12-18T02:16:01;25.50;;;12.80;;
75375;SDS011;63958;52.004;5.908;2022-12-18T02:18:40;27.47;;;12.77;;
75375;SDS011;63958;52.004;5.908;2022-12-18T02:21:13;28.97;;;13.70;;
75375;SDS011;63958;52.004;5.908;2022-12-18T02:23:55;21.90;;;11.57;;
75375;SDS011;63958;52.004;5.908;2022-12-18T02:26:33;18.67;;;9.87;;
75375;SDS011;63958;52.004;5.908;2022-12-18T02:29:05;17.80;;;8.87;;
75375;SDS011;63958;52.004;5.908;2022-12-18T02:31:40;19.87;;;10.43;;
75375;SDS011;63958;52.004;5.908;2022-12-18T02:34:14;22.37;;;11.37;;
75375;SDS011;63958;52.004;5.908;2022-12-18T02:36:45;19.77;;;10.23;;
75375;SDS011;63958;52.004;5.908;2022-12-18T02:39:16;23.97;;;12.13;;
75375;SDS011;63958;52.004;5.908;2022-12-18T02:41:59;28.40;;;14.60;;
75375;SDS011;63958;52.004;5.908;2022-12-18T02:44:33;18.20;;;10.13;;
75375;SDS011;63958;52.004;5.908;2022-12-18T02:47:04;20.13;;;10.77;;
75375;SDS011;63958;52.004;5.908;2022-12-18T02:49:35;15.03;;;8.67;;
75375;SDS011;63958;52.004;5.908;2022-12-18T02:52:14;28.33;;;14.30;;
75375;SDS011;63958;52.004;5.908;2022-12-18T02:54:55;20.47;;;12.17;;
75375;SDS011;63958;52.004;5.908;2022-12-18T02:57:36;21.43;;;10.67;;
75375;SDS011;63958;52.004;5.908;2022-12-18T03:00:12;22.67;;;11.93;;
75375;SDS011;63958;52.004;5.908;2022-12-18T03:02:45;22.47;;;10.80;;
75375;SDS011;63958;52.004;5.908;2022-12-18T03:05:20;22.93;;;12.27;;
75375;SDS011;63958;52.004;5.908;2022-12-18T03:07:53;21.57;;;11.57;;
75375;SDS011;63958;52.004;5.908;2022-12-18T03:10:29;22.10;;;12.03;;
75375;SDS011;63958;52.004;5.908;2022-12-18T03:15:35;20.70;;;10.95;;
75375;SDS011;63958;52.004;5.908;2022-12-18T03:18:10;20.97;;;9.23;;
75375;SDS011;63958;52.004;5.908;2022-12-18T03:20:43;19.13;;;10.47;;
75375;SDS011;63958;52.004;5.908;2022-12-18T03:23:18;15.10;;;8.63;;
75375;SDS011;63958;52.004;5.908;2022-12-18T03:25:54;20.87;;;10.77;;
75375;SDS011;63958;52.004;5.908;2022-12-18T03:28:29;26.67;;;12.80;;
75375;SDS011;63958;52.004;5.908;2022-12-18T03:31:03;26.97;;;13.60;;
75375;SDS011;63958;52.004;5.908;2022-12-18T03:33:34;25.70;;;12.60;;
75375;SDS011;63958;52.004;5.908;2022-12-18T03:36:07;33.37;;;14.83;;
75375;SDS011;63958;52.004;5.908;2022-12-18T03:38:37;24.43;;;12.90;;
75375;SDS011;63958;52.004;5.908;2022-12-18T03:41:10;25.07;;;12.83;;
75375;SDS011;63958;52.004;5.908;2022-12-18T03:44:13;26.47;;;14.07;;
75375;SDS011;63958;52.004;5.908;2022-12-18T03:46:46;29.77;;;14.20;;
75375;SDS011;63958;52.004;5.908;2022-12-18T03:49:25;29.03;;;14.83;;
75375;SDS011;63958;52.004;5.908;2022-12-18T03:52:02;26.43;;;14.17;;
75375;SDS011;63958;52.004;5.908;2022-12-18T03:54:36;29.23;;;15.23;;
75375;SDS011;63958;52.004;5.908;2022-12-18T03:57:12;28.97;;;16.27;;
75375;SDS011;63958;52.004;5.908;2022-12-18T03:59:49;26.93;;;16.07;;
75375;SDS011;63958;52.004;5.908;2022-12-18T04:02:24;28.77;;;14.60;;
75375;SDS011;63958;52.004;5.908;2022-12-18T04:04:55;28.77;;;15.40;;
75375;SDS011;63958;52.004;5.908;2022-12-18T04:07:28;25.73;;;13.63;;
75375;SDS011;63958;52.004;5.908;2022-12-18T04:09:58;25.23;;;14.50;;
75375;SDS011;63958;52.004;5.908;2022-12-18T04:12:30;24.52;;;14.05;;
75375;SDS011;63958;52.004;5.908;2022-12-18T04:15:01;26.43;;;13.17;;
75375;SDS011;63958;52.004;5.908;2022-12-18T04:17:31;24.88;;;14.27;;
75375;SDS011;63958;52.004;5.908;2022-12-18T04:20:01;28.37;;;13.07;;
75375;SDS011;63958;52.004;5.908;2022-12-18T04:22:30;25.40;;;13.67;;
75375;SDS011;63958;52.004;5.908;2022-12-18T04:24:59;24.70;;;13.43;;
75375;SDS011;63958;52.004;5.908;2022-12-18T04:27:35;24.80;;;13.60;;
75375;SDS011;63958;52.004;5.908;2022-12-18T04:30:08;28.17;;;14.03;;
75375;SDS011;63958;52.004;5.908;2022-12-18T04:32:38;28.60;;;13.80;;
75375;SDS011;63958;52.004;5.908;2022-12-18T04:35:08;26.17;;;14.53;;
75375;SDS011;63958;52.004;5.908;2022-12-18T04:37:40;25.13;;;13.63;;
75375;SDS011;63958;52.004;5.908;2022-12-18T04:40:10;25.53;;;13.93;;
75375;SDS011;63958;52.004;5.908;2022-12-18T04:42:43;28.10;;;14.80;;
75375;SDS011;63958;52.004;5.908;2022-12-18T04:45:14;23.53;;;13.57;;
75375;SDS011;63958;52.004;5.908;2022-12-18T04:47:44;21.98;;;12.75;;
75375;SDS011;63958;52.004;5.908;2022-12-18T04:50:13;20.57;;;12.53;;
75375;SDS011;63958;52.004;5.908;2022-12-18T04:52:44;24.53;;;13.73;;
75375;SDS011;63958;52.004;5.908;2022-12-18T04:55:13;24.83;;;13.33;;
75375;SDS011;63958;52.004;5.908;2022-12-18T04:57:42;22.37;;;12.43;;
75375;SDS011;63958;52.004;5.908;2022-12-18T05:00:14;21.07;;;11.37;;
75375;SDS011;63958;52.004;5.908;2022-12-18T05:02:44;22.52;;;12.50;;
75375;SDS011;63958;52.004;5.908;2022-12-18T05:05:13;21.33;;;12.00;;
75375;SDS011;63958;52.004;5.908;2022-12-18T05:07:42;26.47;;;13.77;;
75375;SDS011;63958;52.004;5.908;2022-12-18T05:10:10;22.47;;;12.20;;
75375;SDS011;63958;52.004;5.908;2022-12-18T05:12:39;21.00;;;12.60;;
75375;SDS011;63958;52.004;5.908;2022-12-18T05:15:23;21.77;;;12.30;;
75375;SDS011;63958;52.004;5.908;2022-12-18T05:17:53;22.83;;;13.40;;
75375;SDS011;63958;52.004;5.908;2022-12-18T05:20:22;23.03;;;12.10;;
75375;SDS011;63958;52.004;5.908;2022-12-18T05:22:52;20.00;;;12.30;;
75375;SDS011;63958;52.004;5.908;2022-12-18T05:25:21;22.43;;;12.40;;
75375;SDS011;63958;52.004;5.908;2022-12-18T05:27:51;18.73;;;11.43;;
75375;SDS011;63958;52.004;5.908;2022-12-18T05:30:19;21.07;;;12.23;;
75375;SDS011;63958;52.004;5.908;2022-12-18T05:32:51;26.27;;;13.03;;
75375;SDS011;63958;52.004;5.908;2022-12-18T05:35:20;20.37;;;11.97;;
75375;SDS011;63958;52.004;5.908;2022-12-18T05:37:49;24.50;;;13.07;;
75375;SDS011;63958;52.004;5.908;2022-12-18T05:40:18;22.80;;;13.00;;
75375;SDS011;63958;52.004;5.908;2022-12-18T05:42:47;24.27;;;12.23;;
75375;SDS011;63958;52.004;5.908;2022-12-18T05:45:16;22.17;;;12.60;;
75375;SDS011;63958;52.004;5.908;2022-12-18T05:47:48;21.53;;;11.30;;
75375;SDS011;63958;52.004;5.908;2022-12-18T05:50:17;24.43;;;13.07;;
75375;SDS011;63958;52.004;5.908;2022-12-18T05:52:46;20.97;;;12.03;;
75375;SDS011;63958;52.004;5.908;2022-12-18T05:55:15;21.37;;;12.30;;
75375;SDS011;63958;52.004;5.908;2022-12-18T05:57:44;22.50;;;13.37;;
75375;SDS011;63958;52.004;5.908;2022-12-18T06:00:13;24.60;;;13.37;;
75375;SDS011;63958;52.004;5.908;2022-12-18T06:02:48;20.23;;;12.70;;
75375;SDS011;63958;52.004;5.908;2022-12-18T06:05:17;24.60;;;14.77;;
75375;SDS011;63958;52.004;5.908;2022-12-18T06:07:46;24.13;;;14.23;;
75375;SDS011;63958;52.004;5.908;2022-12-18T06:10:15;20.43;;;12.40;;
75375;SDS011;63958;52.004;5.908;2022-12-18T06:12:44;23.93;;;14.07;;
75375;SDS011;63958;52.004;5.908;2022-12-18T06:15:13;21.93;;;13.10;;
75375;SDS011;63958;52.004;5.908;2022-12-18T06:17:42;22.90;;;11.90;;
75375;SDS011;63958;52.004;5.908;2022-12-18T06:20:13;24.27;;;13.63;;
75375;SDS011;63958;52.004;5.908;2022-12-18T06:22:42;24.20;;;15.07;;
75375;SDS011;63958;52.004;5.908;2022-12-18T06:25:11;22.57;;;13.73;;
75375;SDS011;63958;52.004;5.908;2022-12-18T06:27:40;20.90;;;12.50;;
75375;SDS011;63958;52.004;5.908;2022-12-18T06:30:10;20.17;;;11.23;;
75375;SDS011;63958;52.004;5.908;2022-12-18T06:32:39;24.30;;;13.67;;
75375;SDS011;63958;52.004;5.908;2022-12-18T06:35:08;22.83;;;12.87;;
75375;SDS011;63958;52.004;5.908;2022-12-18T06:37:40;21.90;;;14.27;;
75375;SDS011;63958;52.004;5.908;2022-12-18T06:40:09;23.73;;;13.80;;
75375;SDS011;63958;52.004;5.908;2022-12-18T06:42:38;25.90;;;14.13;;
75375;SDS011;63958;52.004;5.908;2022-12-18T06:45:07;23.03;;;13.20;;
75375;SDS011;63958;52.004;5.908;2022-12-18T06:47:37;20.20;;;12.60;;
75375;SDS011;63958;52.004;5.908;2022-12-18T06:50:06;19.33;;;12.33;;
75375;SDS011;63958;52.004;5.908;2022-12-18T06:52:35;20.80;;;12.23;;
75375;SDS011;63958;52.004;5.908;2022-12-18T06:55:08;20.27;;;12.70;;
75375;SDS011;63958;52.004;5.908;2022-12-18T06:57:37;21.27;;;11.05;;
75375;SDS011;63958;52.004;5.908;2022-12-18T07:00:07;23.03;;;13.73;;
75375;SDS011;63958;52.004;5.908;2022-12-18T07:02:36;26.17;;;12.80;;
75375;SDS011;63958;52.004;5.908;2022-12-18T07:05:06;20.07;;;12.13;;
75375;SDS011;63958;52.004;5.908;2022-12-18T07:07:35;21.10;;;12.53;;
75375;SDS011;63958;52.004;5.908;2022-12-18T07:10:04;20.93;;;13.20;;
75375;SDS011;63958;52.004;5.908;2022-12-18T07:12:36;20.60;;;12.43;;
75375;SDS011;63958;52.004;5.908;2022-12-18T07:15:07;22.73;;;12.03;;
75375;SDS011;63958;52.004;5.908;2022-12-18T07:17:36;19.07;;;10.93;;
75375;SDS011;63958;52.004;5.908;2022-12-18T07:20:06;22.20;;;12.17;;
75375;SDS011;63958;52.004;5.908;2022-12-18T07:22:35;20.13;;;11.90;;
75375;SDS011;63958;52.004;5.908;2022-12-18T07:25:05;20.17;;;11.70;;
75375;SDS011;63958;52.004;5.908;2022-12-18T07:27:37;19.43;;;11.77;;
75375;SDS011;63958;52.004;5.908;2022-12-18T07:30:07;22.63;;;12.50;;
75375;SDS011;63958;52.004;5.908;2022-12-18T07:32:37;22.80;;;11.30;;
75375;SDS011;63958;52.004;5.908;2022-12-18T07:35:06;19.80;;;11.80;;
75375;SDS011;63958;52.004;5.908;2022-12-18T07:37:35;20.63;;;13.73;;
75375;SDS011;63958;52.004;5.908;2022-12-18T07:40:04;23.40;;;12.20;;
75375;SDS011;63958;52.004;5.908;2022-12-18T07:42:37;20.70;;;11.63;;
75375;SDS011;63958;52.004;5.908;2022-12-18T07:45:06;19.93;;;11.77;;
75375;SDS011;63958;52.004;5.908;2022-12-18T07:47:36;20.50;;;10.97;;
75375;SDS011;63958;52.004;5.908;2022-12-18T07:50:07;17.67;;;11.53;;
75375;SDS011;63958;52.004;5.908;2022-12-18T07:52:36;20.60;;;12.60;;
75375;SDS011;63958;52.004;5.908;2022-12-18T07:55:05;17.70;;;11.57;;
75375;SDS011;63958;52.004;5.908;2022-12-18T07:57:37;16.57;;;9.73;;
75375;SDS011;63958;52.004;5.908;2022-12-18T08:00:06;18.73;;;10.73;;
75375;SDS011;63958;52.004;5.908;2022-12-18T08:02:39;20.20;;;11.27;;
75375;SDS011;63958;52.004;5.908;2022-12-18T08:05:08;20.47;;;11.60;;
75375;SDS011;63958;52.004;5.908;2022-12-18T08:07:37;20.17;;;11.73;;
75375;SDS011;63958;52.004;5.908;2022-12-18T08:10:07;19.47;;;10.23;;
75375;SDS011;63958;52.004;5.908;2022-12-18T08:12:39;19.13;;;10.57;;
75375;SDS011;63958;52.004;5.908;2022-12-18T08:15:08;21.87;;;12.13;;
75375;SDS011;63958;52.004;5.908;2022-12-18T08:17:37;20.27;;;11.17;;
75375;SDS011;63958;52.004;5.908;2022-12-18T08:20:07;17.57;;;10.90;;
75375;SDS011;63958;52.004;5.908;2022-12-18T08:22:37;16.80;;;10.53;;
75375;SDS011;63958;52.004;5.908;2022-12-18T08:25:06;17.93;;;11.47;;
75375;SDS011;63958;52.004;5.908;2022-12-18T08:27:38;19.53;;;11.83;;
75375;SDS011;63958;52.004;5.908;2022-12-18T08:30:08;19.07;;;11.33;;
75375;SDS011;63958;52.004;5.908;2022-12-18T08:32:38;21.13;;;11.43;;
75375;SDS011;63958;52.004;5.908;2022-12-18T08:35:07;18.70;;;10.67;;
75375;SDS011;63958;52.004;5.908;2022-12-18T08:37:37;17.73;;;9.53;;
75375;SDS011;63958;52.004;5.908;2022-12-18T08:40:07;19.10;;;10.20;;
75375;SDS011;63958;52.004;5.908;2022-12-18T08:42:40;17.00;;;10.67;;
75375;SDS011;63958;52.004;5.908;2022-12-18T08:45:22;19.03;;;11.10;;
75375;SDS011;63958;52.004;5.908;2022-12-18T08:47:51;16.83;;;10.73;;
75375;SDS011;63958;52.004;5.908;2022-12-18T08:50:20;16.27;;;9.93;;
75375;SDS011;63958;52.004;5.908;2022-12-18T08:52:49;19.33;;;9.77;;
75375;SDS011;63958;52.004;5.908;2022-12-18T08:55:18;16.37;;;9.83;;
75375;SDS011;63958;52.004;5.908;2022-12-18T08:57:50;18.33;;;11.20;;
75375;SDS011;63958;52.004;5.908;2022-12-18T09:00:19;13.83;;;8.00;;
75375;SDS011;63958;52.004;5.908;2022-12-18T09:02:48;18.40;;;9.37;;
75375;SDS011;63958;52.004;5.908;2022-12-18T09:05:17;15.10;;;9.50;;
75375;SDS011;63958;52.004;5.908;2022-12-18T09:07:46;17.40;;;9.83;;
75375;SDS011;63958;52.004;5.908;2022-12-18T09:10:15;16.00;;;9.90;;
75375;SDS011;63958;52.004;5.908;2022-12-18T09:12:44;16.23;;;10.53;;
75375;SDS011;63958;52.004;5.908;2022-12-18T09:15:15;18.00;;;9.60;;
75375;SDS011;63958;52.004;5.908;2022-12-18T09:17:44;16.80;;;10.13;;
75375;SDS011;63958;52.004;5.908;2022-12-18T09:20:13;18.30;;;11.13;;
75375;SDS011;63958;52.004;5.908;2022-12-18T09:22:42;18.43;;;10.07;;
75375;SDS011;63958;52.004;5.908;2022-12-18T09:25:11;16.43;;;9.97;;
75375;SDS011;63958;52.004;5.908;2022-12-18T09:27:40;16.07;;;9.13;;
75375;SDS011;63958;52.004;5.908;2022-12-18T09:30:10;14.73;;;8.03;;
75375;SDS011;63958;52.004;5.908;2022-12-18T09:32:41;12.93;;;8.03;;
75375;SDS011;63958;52.004;5.908;2022-12-18T09:35:10;14.70;;;8.73;;
75375;SDS011;63958;52.004;5.908;2022-12-18T09:37:39;15.33;;;8.77;;
75375;SDS011;63958;52.004;5.908;2022-12-18T09:40:12;14.50;;;8.73;;
75375;SDS011;63958;52.004;5.908;2022-12-18T09:42:42;16.57;;;9.13;;
75375;SDS011;63958;52.004;5.908;2022-12-18T09:45:15;13.13;;;7.83;;
75375;SDS011;63958;52.004;5.908;2022-12-18T09:47:48;14.93;;;8.87;;
75375;SDS011;63958;52.004;5.908;2022-12-18T09:50:22;15.17;;;9.80;;
75375;SDS011;63958;52.004;5.908;2022-12-18T09:52:56;14.23;;;8.70;;
75375;SDS011;63958;52.004;5.908;2022-12-18T09:55:28;15.32;;;9.27;;
75375;SDS011;63958;52.004;5.908;2022-12-18T09:58:01;17.75;;;9.57;;
75375;SDS011;63958;52.004;5.908;2022-12-18T10:00:35;14.60;;;9.13;;
75375;SDS011;63958;52.004;5.908;2022-12-18T10:03:11;15.05;;;9.27;;
75375;SDS011;63958;52.004;5.908;2022-12-18T10:05:43;13.53;;;8.70;;
75375;SDS011;63958;52.004;5.908;2022-12-18T10:08:19;16.33;;;10.03;;
75375;SDS011;63958;52.004;5.908;2022-12-18T10:10:53;15.17;;;8.87;;
75375;SDS011;63958;52.004;5.908;2022-12-18T10:13:29;15.90;;;9.40;;
75375;SDS011;63958;52.004;5.908;2022-12-18T10:16:08;14.33;;;8.67;;
75375;SDS011;63958;52.004;5.908;2022-12-18T10:18:53;12.53;;;8.13;;
75375;SDS011;63958;52.004;5.908;2022-12-18T10:21:32;16.70;;;9.60;;
75375;SDS011;63958;52.004;5.908;2022-12-18T10:24:09;15.70;;;9.37;;
75375;SDS011;63958;52.004;5.908;2022-12-18T10:26:42;14.83;;;9.40;;
75375;SDS011;63958;52.004;5.908;2022-12-18T10:29:13;13.30;;;8.00;;
75375;SDS011;63958;52.004;5.908;2022-12-18T10:31:43;14.43;;;9.07;;
75375;SDS011;63958;52.004;5.908;2022-12-18T10:34:15;15.83;;;8.77;;
75375;SDS011;63958;52.004;5.908;2022-12-18T10:36:44;14.80;;;8.97;;
75375;SDS011;63958;52.004;5.908;2022-12-18T10:39:17;18.40;;;9.87;;
75375;SDS011;63958;52.004;5.908;2022-12-18T10:41:49;17.13;;;8.87;;
75375;SDS011;63958;52.004;5.908;2022-12-18T10:44:18;17.33;;;9.83;;
75375;SDS011;63958;52.004;5.908;2022-12-18T10:46:48;14.67;;;8.77;;
75375;SDS011;63958;52.004;5.908;2022-12-18T10:49:23;16.27;;;10.07;;
75375;SDS011;63958;52.004;5.908;2022-12-18T10:52:04;15.57;;;10.23;;
75375;SDS011;63958;52.004;5.908;2022-12-18T10:54:34;16.03;;;8.77;;
75375;SDS011;63958;52.004;5.908;2022-12-18T10:57:14;17.67;;;9.43;;
75375;SDS011;63958;52.004;5.908;2022-12-18T10:59:51;15.00;;;9.67;;
75375;SDS011;63958;52.004;5.908;2022-12-18T11:02:25;15.43;;;9.20;;
75375;SDS011;63958;52.004;5.908;2022-12-18T11:04:58;15.17;;;9.20;;
75375;SDS011;63958;52.004;5.908;2022-12-18T11:07:32;14.97;;;8.73;;
75375;SDS011;63958;52.004;5.908;2022-12-18T11:10:17;15.13;;;9.23;;
75375;SDS011;63958;52.004;5.908;2022-12-18T11:12:47;15.57;;;9.60;;
75375;SDS011;63958;52.004;5.908;2022-12-18T11:15:18;14.13;;;8.90;;
75375;SDS011;63958;52.004;5.908;2022-12-18T11:17:49;14.13;;;8.20;;
75375;SDS011;63958;52.004;5.908;2022-12-18T11:20:23;15.43;;;8.87;;
75375;SDS011;63958;52.004;5.908;2022-12-18T11:23:00;14.07;;;9.03;;
75375;SDS011;63958;52.004;5.908;2022-12-18T11:25:31;17.03;;;9.70;;
75375;SDS011;63958;52.004;5.908;2022-12-18T11:28:02;16.37;;;9.50;;
75375;SDS011;63958;52.004;5.908;2022-12-18T11:30:33;15.67;;;9.87;;
75375;SDS011;63958;52.004;5.908;2022-12-18T11:33:04;14.37;;;9.00;;
75375;SDS011;63958;52.004;5.908;2022-12-18T11:35:40;14.23;;;9.33;;
75375;SDS011;63958;52.004;5.908;2022-12-18T11:38:18;15.33;;;8.40;;
75375;SDS011;63958;52.004;5.908;2022-12-18T11:40:52;16.87;;;9.70;;
75375;SDS011;63958;52.004;5.908;2022-12-18T11:43:28;15.60;;;9.80;;
75375;SDS011;63958;52.004;5.908;2022-12-18T11:45:59;15.73;;;10.10;;
75375;SDS011;63958;52.004;5.908;2022-12-18T11:48:33;17.63;;;9.57;;
75375;SDS011;63958;52.004;5.908;2022-12-18T11:51:09;19.70;;;11.17;;
75375;SDS011;63958;52.004;5.908;2022-12-18T11:53:41;17.30;;;9.87;;
75375;SDS011;63958;52.004;5.908;2022-12-18T11:56:15;14.93;;;9.63;;
75375;SDS011;63958;52.004;5.908;2022-12-18T11:58:58;16.07;;;8.93;;
75375;SDS011;63958;52.004;5.908;2022-12-18T12:01:36;13.50;;;8.80;;
75375;SDS011;63958;52.004;5.908;2022-12-18T12:07:05;16.13;;;10.10;;
75375;SDS011;63958;52.004;5.908;2022-12-18T12:09:51;16.93;;;9.47;;
75375;SDS011;63958;52.004;5.908;2022-12-18T12:12:31;16.07;;;9.47;;
75375;SDS011;63958;52.004;5.908;2022-12-18T12:15:17;20.17;;;10.17;;
75375;SDS011;63958;52.004;5.908;2022-12-18T12:17:54;17.30;;;10.30;;
75375;SDS011;63958;52.004;5.908;2022-12-18T12:20:32;16.37;;;9.73;;
75375;SDS011;63958;52.004;5.908;2022-12-18T12:23:13;16.33;;;10.20;;
75375;SDS011;63958;52.004;5.908;2022-12-18T12:25:48;15.10;;;9.20;;
75375;SDS011;63958;52.004;5.908;2022-12-18T12:28:32;15.70;;;10.30;;
75375;SDS011;63958;52.004;5.908;2022-12-18T12:31:17;13.70;;;8.80;;
75375;SDS011;63958;52.004;5.908;2022-12-18T12:33:51;16.37;;;9.70;;
75375;SDS011;63958;52.004;5.908;2022-12-18T12:36:31;17.77;;;10.63;;
75375;SDS011;63958;52.004;5.908;2022-12-18T12:39:14;17.97;;;10.70;;
75375;SDS011;63958;52.004;5.908;2022-12-18T12:41:46;16.40;;;9.53;;
75375;SDS011;63958;52.004;5.908;2022-12-18T12:44:29;17.77;;;10.70;;
75375;SDS011;63958;52.004;5.908;2022-12-18T12:47:04;16.90;;;10.60;;
75375;SDS011;63958;52.004;5.908;2022-12-18T12:49:44;16.67;;;9.45;;
75375;SDS011;63958;52.004;5.908;2022-12-18T12:52:15;16.50;;;10.43;;
75375;SDS011;63958;52.004;5.908;2022-12-18T12:54:52;15.10;;;10.13;;
75375;SDS011;63958;52.004;5.908;2022-12-18T12:57:23;18.63;;;10.63;;
75375;SDS011;63958;52.004;5.908;2022-12-18T12:59:59;14.33;;;9.67;;
75375;SDS011;63958;52.004;5.908;2022-12-18T13:02:33;17.83;;;11.27;;
75375;SDS011;63958;52.004;5.908;2022-12-18T13:05:09;16.23;;;9.37;;
75375;SDS011;63958;52.004;5.908;2022-12-18T13:07:47;15.50;;;8.95;;
75375;SDS011;63958;52.004;5.908;2022-12-18T13:10:30;17.35;;;9.95;;
75375;SDS011;63958;52.004;5.908;2022-12-18T13:13:02;19.70;;;10.85;;
75375;SDS011;63958;52.004;5.908;2022-12-18T13:15:32;17.07;;;10.23;;
75375;SDS011;63958;52.004;5.908;2022-12-18T13:20:50;15.93;;;9.47;;
75375;SDS011;63958;52.004;5.908;2022-12-18T13:23:32;17.25;;;10.00;;
75375;SDS011;63958;52.004;5.908;2022-12-18T13:29:02;15.17;;;9.30;;
75375;SDS011;63958;52.004;5.908;2022-12-18T13:34:36;17.02;;;10.38;;
75375;SDS011;63958;52.004;5.908;2022-12-18T13:43:04;19.98;;;10.82;;
75375;SDS011;63958;52.004;5.908;2022-12-18T13:45:58;16.75;;;9.88;;
75375;SDS011;63958;52.004;5.908;2022-12-18T13:48:33;17.58;;;10.07;;
75375;SDS011;63958;52.004;5.908;2022-12-18T13:51:05;14.93;;;9.32;;
75375;SDS011;63958;52.004;5.908;2022-12-18T13:53:38;15.70;;;8.95;;
75375;SDS011;63958;52.004;5.908;2022-12-18T13:56:15;14.43;;;9.48;;
75375;SDS011;63958;52.004;5.908;2022-12-18T13:58:47;14.67;;;9.50;;
75375;SDS011;63958;52.004;5.908;2022-12-18T14:01:33;17.10;;;10.68;;
75375;SDS011;63958;52.004;5.908;2022-12-18T14:04:09;18.60;;;11.40;;
75375;SDS011;63958;52.004;5.908;2022-12-18T14:06:38;18.90;;;10.63;;
75375;SDS011;63958;52.004;5.908;2022-12-18T14:09:10;18.73;;;10.18;;
75375;SDS011;63958;52.004;5.908;2022-12-18T14:11:46;20.00;;;11.23;;
75375;SDS011;63958;52.004;5.908;2022-12-18T14:14:18;16.70;;;10.07;;
75375;SDS011;63958;52.004;5.908;2022-12-18T14:19:17;17.20;;;9.80;;
75375;SDS011;63958;52.004;5.908;2022-12-18T14:21:47;15.67;;;9.97;;
75375;SDS011;63958;52.004;5.908;2022-12-18T14:24:18;15.02;;;9.68;;
75375;SDS011;63958;52.004;5.908;2022-12-18T14:26:49;17.95;;;9.88;;
75375;SDS011;63958;52.004;5.908;2022-12-18T14:29:26;17.67;;;11.13;;
75375;SDS011;63958;52.004;5.908;2022-12-18T14:32:06;17.33;;;11.20;;
75375;SDS011;63958;52.004;5.908;2022-12-18T14:34:41;15.32;;;9.88;;
75375;SDS011;63958;52.004;5.908;2022-12-18T14:37:10;17.92;;;10.65;;
75375;SDS011;63958;52.004;5.908;2022-12-18T14:39:41;19.83;;;11.10;;
75375;SDS011;63958;52.004;5.908;2022-12-18T14:42:21;18.92;;;11.88;;
75375;SDS011;63958;52.004;5.908;2022-12-18T14:47:55;16.65;;;10.85;;
75375;SDS011;63958;52.004;5.908;2022-12-18T14:50:24;17.63;;;11.40;;
75375;SDS011;63958;52.004;5.908;2022-12-18T14:52:53;15.43;;;10.45;;
75375;SDS011;63958;52.004;5.908;2022-12-18T14:55:22;15.52;;;9.95;;
75375;SDS011;63958;52.004;5.908;2022-12-18T14:57:51;18.80;;;12.27;;
75375;SDS011;63958;52.004;5.908;2022-12-18T15:00:22;19.55;;;11.13;;
75375;SDS011;63958;52.004;5.908;2022-12-18T15:02:56;16.35;;;10.10;;
75375;SDS011;63958;52.004;5.908;2022-12-18T15:05:26;16.17;;;9.68;;
75375;SDS011;63958;52.004;5.908;2022-12-18T15:07:57;16.02;;;10.15;;
75375;SDS011;63958;52.004;5.908;2022-12-18T15:10:29;15.75;;;9.50;;
75375;SDS011;63958;52.004;5.908;2022-12-18T15:13:06;16.25;;;10.48;;
75375;SDS011;63958;52.004;5.908;2022-12-18T15:15:47;18.77;;;11.32;;
75375;SDS011;63958;52.004;5.908;2022-12-18T15:18:19;22.43;;;12.13;;
75375;SDS011;63958;52.004;5.908;2022-12-18T15:20:50;20.33;;;13.05;;
75375;SDS011;63958;52.004;5.908;2022-12-18T15:23:21;17.48;;;9.98;;